LFKBLFKC

Guest
Details From LFKB - Bastia Poretta
To LFKC - St Catherine
Flight Number -
Tags generated
Created
Modified
Stats Distance 32 nm / 59 km
Max Altitude 400 ft / 122 m
Waypoints 3
Social Downloads 0
Likes 0
Share VATSIM

Download

Looking for another format? Having issues loading an existing format? Contact us
Advertisement - Login to hide

Notes

Basic altitude profile: - Ascent Rate: 2500ft/min - Ascent Speed: 250kts - Cruise Altitude: 35000ft - Cruise Speed: 420kts - Descent Rate: 1500ft/min - Descent Speed: 250kts

Route

LFKB BTA LFKC

ID Type Via Altitude Latitude Longitude Leg Dist Tot Dist Heading (true) Name
O LFKB APT - 0 ft / 0 m 42.55251˚ 9.48371˚ - 0 nm - Bastia Poretta
BTA VOR - 400 ft / 122 m 42.57369˚ 9.47459˚ 1 nm 1 nm 342° / 342° BASTIA PORETTA VOR-DME
O LFKC APT - 0 ft / 0 m 42.53076˚ 8.79293˚ 30 nm 31 nm 265° / 265° St Catherine

Altitude Profile

Advertisement - Login to hide

LFKB

Details ICAO LFKB (BIA)
Name Bastia Poretta
Region France
Timezone Europe/Paris (UTC+2.0)
Stats Elevation 25 ft / 8 m (AMSL)
Location 42.552508° 9.483709°
Runways 1
Magnetic Variation 2.532° E

METAR

LFKB 210730Z AUTO 03004KT 360V060 9999 FEW100 SCT170 21/16 Q1012 TEMPO SHRA FEW015 BKN030TCU

Decode

TAF

TAF LFKB 210200Z 2103/2203 VRB05KT 9999 SCT080 BKN120 BECMG 2103/2106 FEW020 SCT040TCU OVC080 TEMPO 2108/2122 SHRA FEW015 BKN030TCU PROB40 TEMPO 2113/2120 12012KT 4000 TSRA SCT020CB BKN030 TX23/2113Z TN15/2104Z

Decode

Departure Runways

ID Width Length Bearing (true) Bearing (mag) Surface Threshold Offset Overrun Length
16 148 ft / 45 m 8,273 ft / 2,522 m 162.83° 160.30° Concrete 0 ft / 0 m 131 ft / 40 m
34 148 ft / 45 m 8,273 ft / 2,522 m 342.84° 340.31° Concrete 0 ft / 0 m 0 ft / 0 m

LFKC

Details ICAO LFKC (CLY)
Name St Catherine
Region France
Timezone Europe/Paris (UTC+2.0)
Stats Elevation 208 ft / 63 m (AMSL)
Location 42.530762° 8.792925°
Runways 1
Magnetic Variation 2.389° E

METAR

LFKC 210730Z AUTO VRB02KT 9999 FEW096 BKN140 21/14 Q1012 TEMPO SHRA FEW015 BKN030TCU

Decode

TAF

TAF LFKC 210200Z 2103/2203 VRB05KT 9999 SCT080 BKN120 BECMG 2103/2105 FEW020 SCT040TCU OVC080 TEMPO 2108/2121 SHRA FEW015 BKN030TCU PROB40 TEMPO 2110/2119 36012KT 4000 TSRA SCT020CB BKN030 TX21/2113Z TN14/2104Z

Decode

Destination Runways

ID Width Length Bearing (true) Bearing (mag) Surface Threshold Offset Overrun Length
18 131 ft / 40 m 7,596 ft / 2,315 m 179.60° 177.21° Concrete 0 ft / 0 m 0 ft / 0 m
36 131 ft / 40 m 7,596 ft / 2,315 m 359.60° 357.21° Concrete 656 ft / 200 m 0 ft / 0 m

Approach Navaids

Runway Type Ident Frequency Range Bearing (true) Bearing (mag) Slope Elevation
18 Localiser CLI 109.50 MHz 18 nm / 33 km 179.62° 177.23° - 230 ft / 70 m (AMSL)
18 DME CLI 109.50 MHz 18 nm / 33 km - - - 230 ft / 70 m (AMSL)

Popular Alternatives